Time;durP1;ratioP1;P1;durP2;ratioP2;P2;SDS_P1;SDS_P2;PMS_P1;PMS_P2;Temp;Humidity;BMP_temperature;BMP_pressure;BME280_temperature;BME280_humidity;BME280_pressure;Samples;Min_cycle;Max_cycle;Signal;HPM_P1;HPM_P2
2023/03/01 00:00:50;;;;;;;71.72;39.67;;;-2.20;99.90;;;;;;2082686;28;20048;-78
2023/03/01 00:01:51;;;;;;;71.85;39.75;;;-2.20;99.90;;;;;;2082104;28;20482;-78
2023/03/01 00:02:51;;;;;;;68.75;39.10;;;-2.20;99.90;;;;;;2079976;28;20029;-78
2023/03/01 00:03:53;;;;;;;69.38;38.50;;;-2.20;99.90;;;;;;2076108;28;20036;-78
2023/03/01 00:04:54;;;;;;;71.45;40.05;;;-2.20;99.90;;;;;;2076995;28;20504;-78
2023/03/01 00:05:54;;;;;;;71.20;40.08;;;-2.20;99.90;;;;;;2092695;28;20033;-78
2023/03/01 00:06:55;;;;;;;71.70;39.83;;;-2.20;99.90;;;;;;2077338;28;20051;-78
2023/03/01 00:07:56;;;;;;;70.05;38.72;;;-2.20;99.90;;;;;;2060833;28;20037;-77
2023/03/01 00:08:56;;;;;;;67.93;37.97;;;-2.20;99.90;;;;;;2066891;28;20030;-77
2023/03/01 00:09:57;;;;;;;68.18;38.00;;;-2.20;99.90;;;;;;2079846;28;20044;-78
2023/03/01 00:11:07;;;;;;;66.05;37.08;;;-2.30;99.90;;;;;;2091584;28;20468;-78
2023/03/01 00:12:08;;;;;;;70.82;38.00;;;-2.20;99.90;;;;;;2095179;28;20503;-78
2023/03/01 00:13:08;;;;;;;70.70;39.08;;;-2.30;99.90;;;;;;2091428;28;20028;-78
2023/03/01 00:14:09;;;;;;;68.53;38.13;;;-2.30;99.90;;;;;;2086088;28;20043;-77
2023/03/01 00:15:11;;;;;;;69.38;38.78;;;-2.30;99.90;;;;;;2076183;28;20237;-78
2023/03/01 00:16:29;;;;;;;69.05;38.75;;;-2.30;99.90;;;;;;2081297;28;20547;-77
2023/03/01 00:17:30;;;;;;;71.80;39.20;;;-2.30;99.90;;;;;;2075539;28;20041;-78
2023/03/01 00:18:31;;;;;;;70.38;38.72;;;-2.30;99.90;;;;;;2075716;28;20048;-77
2023/03/01 00:19:32;;;;;;;64.90;38.00;;;-2.30;99.90;;;;;;2085758;28;20526;-77
2023/03/01 00:20:33;;;;;;;65.85;37.97;;;-2.30;99.90;;;;;;2080626;28;20038;-75
2023/03/01 00:21:35;;;;;;;71.13;39.00;;;-2.30;99.90;;;;;;2075808;28;20437;-76
2023/03/01 00:22:36;;;;;;;69.05;38.53;;;-2.30;99.90;;;;;;2076805;28;20026;-77
2023/03/01 00:23:37;;;;;;;68.85;38.03;;;-2.30;99.90;;;;;;2080614;28;20033;-77
2023/03/01 00:24:38;;;;;;;66.00;37.33;;;-2.40;99.90;;;;;;2085108;28;20037;-76
2023/03/01 00:25:42;;;;;;;68.45;38.17;;;-2.40;99.90;;;;;;2077029;28;20132;-77
2023/03/01 00:26:43;;;;;;;68.85;38.75;;;-2.40;99.90;;;;;;2077835;28;20498;-77
2023/03/01 00:27:43;;;;;;;64.03;36.50;;;-2.40;99.90;;;;;;2076444;28;20091;-77
2023/03/01 00:28:44;;;;;;;67.03;37.85;;;-2.40;99.90;;;;;;2081025;28;20057;-77
2023/03/01 00:29:45;;;;;;;64.47;36.75;;;-2.40;99.90;;;;;;2081786;28;20522;-78
2023/03/01 00:30:46;;;;;;;64.32;36.75;;;-2.40;99.90;;;;;;2083985;28;20033;-77
2023/03/01 00:31:47;;;;;;;63.90;36.50;;;-2.40;99.90;;;;;;2086286;28;20031;-78
2023/03/01 00:32:47;;;;;;;64.57;37.30;;;-2.40;99.90;;;;;;2078927;28;20040;-77
2023/03/01 00:33:51;;;;;;;67.50;37.60;;;-2.40;99.90;;;;;;2079354;28;20068;-77
2023/03/01 00:34:54;;;;;;;66.65;37.35;;;-2.40;99.90;;;;;;2073920;28;20314;-77
2023/03/01 00:35:58;;;;;;;66.53;37.00;;;-2.40;99.90;;;;;;2069722;28;20060;-77
2023/03/01 00:37:04;;;;;;;68.78;37.33;;;-2.40;99.90;;;;;;2092372;28;20502;-77
2023/03/01 00:38:05;;;;;;;66.00;37.10;;;-2.40;99.90;;;;;;2078746;28;20021;-77
2023/03/01 00:39:11;;;;;;;64.38;36.05;;;-2.40;99.90;;;;;;2073000;28;20028;-78
2023/03/01 00:40:12;;;;;;;66.97;37.00;;;-2.40;99.90;;;;;;2090855;28;20083;-77
2023/03/01 00:41:15;;;;;;;66.43;37.13;;;-2.50;99.90;;;;;;2085413;28;20035;-77
2023/03/01 00:42:16;;;;;;;65.55;36.63;;;-2.50;99.90;;;;;;2085557;28;20029;-76
2023/03/01 00:43:17;;;;;;;67.10;37.72;;;-2.50;99.90;;;;;;2083452;28;20028;-78
2023/03/01 00:44:17;;;;;;;65.28;36.78;;;-2.50;99.90;;;;;;2079829;28;20045;-78
2023/03/01 00:45:18;;;;;;;68.70;37.95;;;-2.50;99.90;;;;;;2074307;28;20026;-78
2023/03/01 00:46:21;;;;;;;71.65;39.00;;;-2.50;99.90;;;;;;2072238;28;20021;-78
2023/03/01 00:47:22;;;;;;;70.65;39.38;;;-2.50;99.90;;;;;;2083199;28;20025;-77
2023/03/01 00:48:22;;;;;;;73.03;38.92;;;-2.50;99.90;;;;;;2093655;28;20029;-78
2023/03/01 00:49:24;;;;;;;68.57;38.83;;;-2.50;99.90;;;;;;2093627;28;20095;-78
2023/03/01 00:50:25;;;;;;;74.95;40.05;;;-2.60;99.90;;;;;;2095457;28;20089;-78
2023/03/01 00:51:27;;;;;;;86.80;43.58;;;-2.60;99.90;;;;;;2087822;28;20082;-77
2023/03/01 00:52:28;;;;;;;93.47;43.80;;;-2.60;99.90;;;;;;2085686;28;20052;-77
2023/03/01 00:53:28;;;;;;;82.60;42.20;;;-2.60;99.90;;;;;;2078235;28;20492;-76
2023/03/01 00:54:29;;;;;;;85.68;43.40;;;-2.60;99.90;;;;;;2078292;28;20021;-76
2023/03/01 00:55:29;;;;;;;84.03;42.40;;;-2.60;99.90;;;;;;2070271;28;20357;-77
2023/03/01 00:56:31;;;;;;;80.13;40.90;;;-2.60;99.90;;;;;;2076187;28;20063;-77
2023/03/01 00:57:32;;;;;;;80.45;42.22;;;-2.60;99.90;;;;;;2068472;28;20033;-77
2023/03/01 00:58:33;;;;;;;80.35;40.58;;;-2.60;99.90;;;;;;2068629;28;20041;-78
2023/03/01 00:59:34;;;;;;;79.32;41.10;;;-2.60;99.90;;;;;;2084689;28;20392;-77
2023/03/01 01:00:35;;;;;;;76.28;40.38;;;-2.60;99.90;;;;;;2088011;28;20052;-77
2023/03/01 01:01:36;;;;;;;76.60;40.33;;;-2.70;99.90;;;;;;2075166;28;20033;-77
2023/03/01 01:02:37;;;;;;;80.13;41.22;;;-2.70;99.90;;;;;;2089053;28;20048;-77
2023/03/01 01:03:38;;;;;;;80.25;40.25;;;-2.70;99.90;;;;;;2080881;28;20024;-78
2023/03/01 01:04:38;;;;;;;80.43;40.65;;;-2.70;99.90;;;;;;2079174;28;20219;-77
2023/03/01 01:05:39;;;;;;;72.65;38.33;;;-2.70;99.90;;;;;;2095837;28;20126;-78
2023/03/01 01:06:45;;;;;;;76.57;39.22;;;-2.70;99.90;;;;;;2085309;28;20036;-77
2023/03/01 01:07:46;;;;;;;77.25;38.97;;;-2.60;99.90;;;;;;2081777;28;20028;-77
2023/03/01 01:08:47;;;;;;;82.45;40.95;;;-2.70;99.90;;;;;;2073670;28;20025;-77
2023/03/01 01:09:48;;;;;;;85.55;41.40;;;-2.70;99.90;;;;;;2079377;28;20181;-77
2023/03/01 01:10:48;;;;;;;94.13;44.03;;;-2.70;99.90;;;;;;2086063;28;20567;-79
2023/03/01 01:11:50;;;;;;;93.32;44.47;;;-2.70;99.90;;;;;;2082850;28;20504;-77
2023/03/01 01:12:51;;;;;;;107.20;47.05;;;-2.70;99.90;;;;;;2078356;28;20446;-77
2023/03/01 01:13:52;;;;;;;104.35;46.28;;;-2.70;99.90;;;;;;2079665;28;20033;-80
2023/03/01 01:14:52;;;;;;;108.70;47.70;;;-2.70;99.90;;;;;;2081038;28;20048;-78
2023/03/01 01:15:53;;;;;;;95.40;44.92;;;-2.80;99.90;;;;;;2082415;28;20040;-78
2023/03/01 01:16:53;;;;;;;90.53;42.95;;;-2.80;99.90;;;;;;2078165;28;20037;-78
2023/03/01 01:17:54;;;;;;;79.97;40.42;;;-2.80;99.90;;;;;;2077130;28;20028;-79
2023/03/01 01:18:56;;;;;;;79.90;39.40;;;-2.80;99.90;;;;;;2093807;28;20132;-79
2023/03/01 01:19:57;;;;;;;78.32;38.58;;;-2.80;99.90;;;;;;2087896;28;20040;-78
2023/03/01 01:20:57;;;;;;;78.28;40.28;;;-2.80;99.90;;;;;;2086501;28;20099;-78
2023/03/01 01:21:58;;;;;;;77.55;39.10;;;-2.80;99.90;;;;;;2086433;28;20566;-77
2023/03/01 01:22:58;;;;;;;74.68;39.83;;;-2.90;99.90;;;;;;2070488;28;20037;-77
2023/03/01 01:23:59;;;;;;;75.32;39.60;;;-2.90;99.90;;;;;;2080565;28;20132;-77
2023/03/01 01:25:00;;;;;;;79.05;39.15;;;-2.90;99.90;;;;;;2077732;28;20034;-77
2023/03/01 01:26:08;;;;;;;77.03;39.38;;;-2.90;99.90;;;;;;2077435;28;20502;-79
2023/03/01 01:27:09;;;;;;;72.47;38.10;;;-2.90;99.90;;;;;;2077266;28;20316;-78
2023/03/01 01:28:09;;;;;;;71.05;37.20;;;-2.90;99.90;;;;;;2085302;28;20139;-77
2023/03/01 01:29:10;;;;;;;69.97;36.83;;;-2.90;99.90;;;;;;2093746;28;20062;-77
2023/03/01 01:30:11;;;;;;;68.82;36.42;;;-2.90;99.90;;;;;;2080428;28;20014;-78
2023/03/01 01:31:12;;;;;;;70.40;37.17;;;-2.90;99.90;;;;;;2077899;28;20391;-78
2023/03/01 01:32:12;;;;;;;68.63;36.85;;;-2.90;99.90;;;;;;2078256;28;20037;-80
2023/03/01 01:33:13;;;;;;;70.57;35.80;;;-2.90;99.90;;;;;;2078425;28;20052;-78
2023/03/01 01:34:19;;;;;;;67.80;35.95;;;-3.00;99.90;;;;;;2083522;28;20029;-78
2023/03/01 01:35:20;;;;;;;65.47;35.45;;;-3.00;99.90;;;;;;2076900;28;20119;-79
2023/03/01 01:36:21;;;;;;;67.70;36.42;;;-3.00;99.90;;;;;;2093703;28;20024;-77
2023/03/01 01:37:22;;;;;;;61.53;33.58;;;-3.00;99.90;;;;;;2093506;28;20400;-79
2023/03/01 01:38:23;;;;;;;65.55;34.13;;;-3.00;99.90;;;;;;2077192;28;20099;-78
2023/03/01 01:39:23;;;;;;;61.30;33.35;;;-3.00;99.90;;;;;;2069241;28;20029;-78
2023/03/01 01:40:24;;;;;;;62.92;33.65;;;-3.00;99.90;;;;;;2085807;28;20414;-78
2023/03/01 01:41:27;;;;;;;61.22;33.03;;;-3.00;99.90;;;;;;2088038;28;20346;-79
2023/03/01 01:42:28;;;;;;;57.00;32.67;;;-3.00;99.90;;;;;;2073622;28;20096;-77
2023/03/01 01:43:34;;;;;;;58.70;33.08;;;-3.00;99.90;;;;;;2081274;28;20075;-78
2023/03/01 01:44:35;;;;;;;65.20;34.53;;;-3.00;99.90;;;;;;2076499;28;20111;-78
2023/03/01 01:45:36;;;;;;;63.70;34.08;;;-3.00;99.90;;;;;;2078292;28;20064;-78
2023/03/01 01:46:53;;;;;;;65.80;34.50;;;-3.00;99.90;;;;;;2079204;28;20028;-78
2023/03/01 01:47:56;;;;;;;61.78;33.13;;;-3.00;99.90;;;;;;2076678;28;20048;-76
2023/03/01 01:49:02;;;;;;;69.50;34.88;;;-3.10;99.90;;;;;;2080229;28;20026;-78
2023/03/01 01:50:02;;;;;;;67.75;34.63;;;-3.10;99.90;;;;;;2076119;28;20025;-78
2023/03/01 01:51:03;;;;;;;70.07;36.00;;;-3.10;99.90;;;;;;2093302;28;20039;-77
2023/03/01 01:52:31;;;;;;;67.45;35.45;;;-3.10;99.90;;;;;;2093359;28;20346;-76
2023/03/01 01:53:31;;;;;;;65.30;34.60;;;-3.10;99.90;;;;;;2074949;28;20150;-78
2023/03/01 01:54:49;;;;;;;67.55;35.65;;;-3.10;99.90;;;;;;2081936;28;20475;-77
2023/03/01 01:55:57;;;;;;;64.85;33.67;;;-3.10;99.90;;;;;;2075508;28;20030;-77
2023/03/01 01:57:03;;;;;;;68.47;35.38;;;-3.10;99.90;;;;;;2074897;28;20296;-78
2023/03/01 01:58:07;;;;;;;66.32;35.72;;;-3.10;99.90;;;;;;2083733;28;20056;-79
2023/03/01 01:59:09;;;;;;;64.80;35.03;;;-3.10;99.90;;;;;;2079046;28;20086;-75
2023/03/01 02:00:20;;;;;;;65.47;34.33;;;-3.10;99.90;;;;;;2079222;28;20111;-77
2023/03/01 02:01:21;;;;;;;64.13;34.65;;;-3.10;99.90;;;;;;2076342;28;20032;-78
2023/03/01 02:02:21;;;;;;;61.75;34.40;;;-3.10;99.90;;;;;;2082031;28;20035;-79
2023/03/01 02:03:28;;;;;;;66.90;34.45;;;-3.10;99.90;;;;;;2098885;28;20039;-78
2023/03/01 02:04:30;;;;;;;62.65;32.47;;;-3.10;99.90;;;;;;2082097;28;20026;-75
2023/03/01 02:05:47;;;;;;;61.85;33.88;;;-3.10;99.90;;;;;;2089200;28;20104;-78
2023/03/01 02:07:07;;;;;;;63.40;32.60;;;-3.10;99.90;;;;;;2082448;28;20044;-79
2023/03/01 02:08:09;;;;;;;61.60;32.83;;;-3.10;99.90;;;;;;2078293;28;20025;-78
2023/03/01 02:09:15;;;;;;;64.32;33.28;;;-3.10;99.90;;;;;;2074871;28;20431;-78
2023/03/01 02:10:16;;;;;;;60.92;32.88;;;-3.10;99.90;;;;;;2087239;28;20142;-77
2023/03/01 02:11:18;;;;;;;59.35;32.17;;;-3.10;99.90;;;;;;2079594;28;20029;-78
2023/03/01 02:12:22;;;;;;;57.03;31.58;;;-3.10;99.90;;;;;;2083156;28;20646;-78
2023/03/01 02:13:23;;;;;;;61.42;32.97;;;-3.10;99.90;;;;;;2077266;28;20369;-78
2023/03/01 02:14:24;;;;;;;61.53;33.58;;;-3.10;99.90;;;;;;2090630;28;20335;-78
2023/03/01 02:15:26;;;;;;;61.47;33.22;;;-3.10;99.90;;;;;;2099566;28;20067;-78
2023/03/01 02:16:28;;;;;;;61.63;33.67;;;-3.10;99.90;;;;;;2083182;28;20474;-77
2023/03/01 02:17:29;;;;;;;62.67;32.85;;;-3.20;99.90;;;;;;2073389;28;20514;-79
2023/03/01 02:18:30;;;;;;;59.63;33.05;;;-3.20;99.90;;;;;;2087135;28;20037;-79
2023/03/01 02:19:45;;;;;;;55.28;31.48;;;-3.10;99.90;;;;;;2095836;28;20036;-78
2023/03/01 02:21:19;;;;;;;57.00;31.98;;;-3.20;99.90;;;;;;2086526;28;20032;-77
2023/03/01 02:22:31;;;;;;;57.70;31.58;;;-3.20;99.90;;;;;;2090660;28;20028;-78
2023/03/01 02:23:34;;;;;;;61.03;32.95;;;-3.20;99.90;;;;;;2081808;28;20052;-78
2023/03/01 02:24:39;;;;;;;59.78;33.60;;;-3.20;99.90;;;;;;2076146;28;20059;-78
2023/03/01 02:26:01;;;;;;;62.45;33.00;;;-3.20;99.90;;;;;;2073947;28;20144;-77
2023/03/01 02:27:02;;;;;;;57.58;31.90;;;-3.20;99.90;;;;;;2080552;28;20017;-77
2023/03/01 02:28:11;;;;;;;54.92;31.73;;;-3.20;99.90;;;;;;2095111;28;20111;-77
2023/03/01 02:29:12;;;;;;;60.03;32.75;;;-3.20;99.90;;;;;;2096231;28;20020;-78
2023/03/01 02:30:12;;;;;;;57.00;31.27;;;-3.20;99.90;;;;;;2083280;28;20181;-77
2023/03/01 02:32:36;;;;;;;62.53;33.22;;;-3.20;99.90;;;;;;2071466;28;20064;-78
2023/03/01 02:33:39;;;;;;;61.65;33.58;;;-3.20;99.90;;;;;;2091664;28;20029;-77
2023/03/01 02:34:39;;;;;;;62.08;33.53;;;-3.20;99.90;;;;;;2074796;28;20091;-78
2023/03/01 02:35:40;;;;;;;59.90;33.47;;;-3.20;99.90;;;;;;2071755;28;20033;-78
2023/03/01 02:36:46;;;;;;;62.00;33.67;;;-3.20;99.90;;;;;;2080759;28;20068;-78
2023/03/01 02:37:48;;;;;;;61.47;33.72;;;-3.20;99.90;;;;;;2089781;28;20115;-78
2023/03/01 02:38:51;;;;;;;64.95;34.03;;;-3.30;99.90;;;;;;2091375;28;20036;-78
2023/03/01 02:39:58;;;;;;;65.30;35.08;;;-3.30;99.90;;;;;;2077768;28;20533;-78
2023/03/01 02:41:00;;;;;;;65.10;34.42;;;-3.30;99.90;;;;;;2078028;28;20035;-79
2023/03/01 02:42:03;;;;;;;65.20;34.47;;;-3.30;99.90;;;;;;2074578;28;20026;-79
2023/03/01 02:43:08;;;;;;;63.97;33.70;;;-3.30;99.90;;;;;;2079441;28;20148;-79
2023/03/01 02:44:09;;;;;;;64.35;34.53;;;-3.30;99.90;;;;;;2094001;28;20030;-77
2023/03/01 02:45:10;;;;;;;63.80;34.38;;;-3.30;99.90;;;;;;2086021;28;20032;-78
2023/03/01 02:46:20;;;;;;;65.03;34.17;;;-3.30;99.90;;;;;;2077849;28;20052;-78
2023/03/01 02:47:21;;;;;;;63.17;33.65;;;-3.30;99.90;;;;;;2086473;28;20021;-76
2023/03/01 02:48:22;;;;;;;62.72;33.85;;;-3.30;99.90;;;;;;2091453;28;20102;-78
2023/03/01 02:49:28;;;;;;;61.47;33.80;;;-3.30;99.90;;;;;;2073874;28;20554;-77
2023/03/01 02:50:29;;;;;;;62.58;34.50;;;-3.30;99.90;;;;;;2076166;28;20029;-79
2023/03/01 02:51:32;;;;;;;59.88;33.47;;;-3.30;99.90;;;;;;2082103;28;20135;-77
2023/03/01 02:52:49;;;;;;;62.88;34.13;;;-3.30;99.90;;;;;;2081011;28;20037;-77
2023/03/01 02:54:16;;;;;;;65.30;34.17;;;-3.30;99.90;;;;;;2078602;28;20602;-78
2023/03/01 02:55:18;;;;;;;62.40;33.05;;;-3.30;99.90;;;;;;2070275;28;20030;-77
2023/03/01 02:56:18;;;;;;;66.70;34.80;;;-3.30;99.90;;;;;;2084485;28;20029;-78
2023/03/01 02:57:20;;;;;;;61.80;33.70;;;-3.30;99.90;;;;;;2074894;28;20035;-79
2023/03/01 02:58:22;;;;;;;59.97;33.67;;;-3.40;99.90;;;;;;2068207;28;20030;-78
2023/03/01 02:59:26;;;;;;;61.58;34.10;;;-3.40;99.90;;;;;;2083882;28;20071;-69
2023/03/01 03:00:34;;;;;;;63.03;33.97;;;-3.40;99.90;;;;;;2079221;28;20025;-68
2023/03/01 03:01:37;;;;;;;63.42;33.88;;;-3.40;99.90;;;;;;2074944;28;20029;-78
2023/03/01 03:02:40;;;;;;;67.10;34.08;;;-3.40;99.90;;;;;;2078085;28;20113;-78
2023/03/01 03:03:52;;;;;;;61.67;33.72;;;-3.40;99.90;;;;;;2074792;28;20103;-78
2023/03/01 03:04:52;;;;;;;63.28;34.40;;;-3.40;99.90;;;;;;2087567;28;20032;-79
2023/03/01 03:05:53;;;;;;;63.55;34.45;;;-3.50;99.90;;;;;;2087538;28;20503;-78
2023/03/01 03:06:54;;;;;;;60.78;33.72;;;-3.50;99.90;;;;;;2080327;28;20033;-78
2023/03/01 03:07:55;;;;;;;61.75;33.53;;;-3.50;99.90;;;;;;2094661;28;20031;-79
2023/03/01 03:08:56;;;;;;;59.35;32.30;;;-3.50;99.90;;;;;;2086021;28;20098;-78
2023/03/01 03:09:57;;;;;;;59.30;32.50;;;-3.50;99.90;;;;;;2084177;28;20025;-77
2023/03/01 03:10:57;;;;;;;68.05;35.80;;;-3.50;99.90;;;;;;2090466;28;20021;-77
2023/03/01 03:11:58;;;;;;;63.28;33.80;;;-3.50;99.90;;;;;;2076809;28;20029;-78
2023/03/01 03:13:07;;;;;;;65.65;34.53;;;-3.50;99.90;;;;;;2061486;28;20030;-77
2023/03/01 03:14:12;;;;;;;73.68;36.95;;;-3.50;99.90;;;;;;2070475;28;20038;-78
2023/03/01 03:15:13;;;;;;;73.20;36.33;;;-3.50;99.90;;;;;;2092363;28;20028;-79
2023/03/01 03:16:14;;;;;;;79.03;39.05;;;-3.50;99.90;;;;;;2094904;28;20054;-77
2023/03/01 03:17:15;;;;;;;81.93;40.45;;;-3.50;99.90;;;;;;2086565;28;20423;-77
2023/03/01 03:18:16;;;;;;;73.10;36.80;;;-3.50;99.90;;;;;;2087073;28;20092;-78
2023/03/01 03:19:19;;;;;;;76.72;38.15;;;-3.60;99.90;;;;;;2079469;28;20049;-78
2023/03/01 03:20:23;;;;;;;73.15;36.35;;;-3.60;99.90;;;;;;2079491;28;20064;-78
2023/03/01 03:21:23;;;;;;;69.90;36.42;;;-3.60;99.90;;;;;;2095102;28;20028;-78
2023/03/01 03:22:24;;;;;;;68.88;36.13;;;-3.60;99.90;;;;;;2086545;28;20107;-78
2023/03/01 03:23:24;;;;;;;69.47;35.47;;;-3.60;99.90;;;;;;2078672;28;20547;-78
2023/03/01 03:24:25;;;;;;;64.45;34.28;;;-3.60;99.90;;;;;;2079311;28;20037;-77
2023/03/01 03:25:27;;;;;;;65.85;35.95;;;-3.60;99.90;;;;;;2079301;28;20029;-78
2023/03/01 03:26:28;;;;;;;67.50;36.10;;;-3.60;99.90;;;;;;2079208;28;20022;-78
2023/03/01 03:27:28;;;;;;;68.55;36.88;;;-3.70;99.90;;;;;;2078495;28;20530;-78
2023/03/01 03:28:30;;;;;;;76.13;38.65;;;-3.70;99.90;;;;;;2078428;28;20118;-79
2023/03/01 03:29:31;;;;;;;76.82;38.88;;;-3.60;99.90;;;;;;2079196;28;20059;-77
2023/03/01 03:30:31;;;;;;;77.35;39.28;;;-3.70;99.90;;;;;;2077906;28;20118;-79
2023/03/01 03:31:32;;;;;;;77.55;39.95;;;-3.70;99.90;;;;;;2078135;28;20037;-78
2023/03/01 03:32:32;;;;;;;78.25;39.92;;;-3.70;99.90;;;;;;2078145;28;20530;-79
2023/03/01 03:33:33;;;;;;;70.70;36.92;;;-3.70;99.90;;;;;;2078389;28;20068;-78
2023/03/01 03:34:33;;;;;;;74.57;38.08;;;-3.60;99.90;;;;;;2091202;28;20029;-78
2023/03/01 03:35:40;;;;;;;70.80;36.97;;;-3.60;99.90;;;;;;2094857;28;20025;-78
2023/03/01 03:36:41;;;;;;;69.57;36.70;;;-3.60;99.90;;;;;;2079000;28;20091;-77
2023/03/01 03:39:01;;;;;;;76.97;38.15;;;-3.60;99.90;;;;;;2079365;28;20037;-78
2023/03/01 03:40:02;;;;;;;75.18;38.75;;;-3.60;99.90;;;;;;2073270;28;20033;-77
2023/03/01 03:41:08;;;;;;;72.47;37.50;;;-3.60;99.90;;;;;;2077935;28;20116;-78
2023/03/01 03:42:09;;;;;;;71.63;37.08;;;-3.60;99.90;;;;;;2094856;28;20116;-77
2023/03/01 03:43:13;;;;;;;75.05;37.25;;;-3.60;99.90;;;;;;2094578;28;20074;-79
2023/03/01 03:44:14;;;;;;;72.82;37.95;;;-3.70;99.90;;;;;;2078808;28;20160;-78
2023/03/01 03:45:16;;;;;;;74.63;38.60;;;-3.70;99.90;;;;;;2094945;28;20024;-79
2023/03/01 03:46:16;;;;;;;70.82;36.83;;;-3.70;99.90;;;;;;2094782;28;20028;-77
2023/03/01 03:47:17;;;;;;;70.90;36.35;;;-3.70;99.90;;;;;;2079269;28;20064;-79
2023/03/01 03:48:18;;;;;;;69.35;36.13;;;-3.70;99.90;;;;;;2078770;28;20038;-78
2023/03/01 03:49:18;;;;;;;74.70;38.05;;;-3.70;99.90;;;;;;2078975;28;20501;-78
2023/03/01 03:50:19;;;;;;;75.15;39.03;;;-3.80;99.90;;;;;;2079191;28;20108;-79
2023/03/01 03:51:22;;;;;;;72.50;39.08;;;-3.80;99.90;;;;;;2079336;28;20091;-79
2023/03/01 03:52:23;;;;;;;70.88;37.00;;;-3.80;99.90;;;;;;2078998;28;20041;-79
2023/03/01 03:53:25;;;;;;;65.95;35.70;;;-3.80;99.90;;;;;;2079061;28;20021;-78
2023/03/01 03:54:26;;;;;;;62.67;34.83;;;-3.80;99.90;;;;;;2078909;28;20030;-78
2023/03/01 03:55:30;;;;;;;66.18;34.28;;;-3.80;99.90;;;;;;2078681;28;20061;-79
2023/03/01 03:56:30;;;;;;;66.25;34.65;;;-3.80;99.90;;;;;;2075538;28;20036;-79
2023/03/01 03:57:31;;;;;;;67.32;35.35;;;-3.80;99.90;;;;;;2078142;28;20044;-79
2023/03/01 03:58:32;;;;;;;66.68;35.58;;;-3.80;99.90;;;;;;2078819;28;20132;-79
2023/03/01 03:59:32;;;;;;;61.67;34.10;;;-3.80;99.90;;;;;;2078919;28;20037;-79
2023/03/01 04:00:35;;;;;;;64.38;35.08;;;-3.80;99.90;;;;;;2078204;28;20026;-78
2023/03/01 04:01:35;;;;;;;71.25;36.47;;;-3.80;99.90;;;;;;2078524;28;20159;-79
2023/03/01 04:02:36;;;;;;;66.22;35.75;;;-3.80;99.90;;;;;;2084889;28;20029;-78
2023/03/01 04:03:36;;;;;;;66.13;35.22;;;-3.80;99.90;;;;;;2084672;28;20033;-80
2023/03/01 04:04:37;;;;;;;66.30;34.58;;;-3.80;99.90;;;;;;2083449;28;20042;-80
2023/03/01 04:05:39;;;;;;;67.72;35.58;;;-3.80;99.90;;;;;;2100319;28;20037;-80
2023/03/01 04:06:39;;;;;;;64.75;35.45;;;-3.90;99.90;;;;;;2092318;28;20033;-79
2023/03/01 04:07:41;;;;;;;67.75;36.15;;;-3.90;99.90;;;;;;2085288;28;20083;-80
2023/03/01 04:08:42;;;;;;;72.57;37.88;;;-3.90;99.90;;;;;;2085898;28;20014;-79
2023/03/01 04:09:43;;;;;;;76.55;38.42;;;-3.90;99.90;;;;;;2085616;28;20044;-79
2023/03/01 04:10:45;;;;;;;73.50;38.13;;;-3.90;99.90;;;;;;2085893;28;20095;-79
2023/03/01 04:11:46;;;;;;;74.75;38.63;;;-3.90;99.90;;;;;;2085741;28;20033;-80
2023/03/01 04:12:46;;;;;;;74.38;37.63;;;-3.90;99.90;;;;;;2085415;28;20037;-79
2023/03/01 04:13:47;;;;;;;70.40;36.50;;;-3.90;99.90;;;;;;2076864;28;20032;-78
2023/03/01 04:14:48;;;;;;;65.18;35.38;;;-3.90;99.90;;;;;;2075943;28;20037;-78
2023/03/01 04:15:50;;;;;;;68.35;37.00;;;-3.90;99.90;;;;;;2076717;28;20041;-77
2023/03/01 04:16:51;;;;;;;65.72;34.55;;;-3.90;99.90;;;;;;2076436;28;20033;-77
2023/03/01 04:17:52;;;;;;;66.47;35.55;;;-4.00;99.90;;;;;;2078669;28;20112;-79
2023/03/01 04:18:53;;;;;;;65.82;35.10;;;-4.00;99.90;;;;;;2077749;28;20432;-77
2023/03/01 04:19:53;;;;;;;67.20;35.25;;;-4.00;99.90;;;;;;2086108;28;20041;-78
2023/03/01 04:20:55;;;;;;;63.65;35.08;;;-4.00;99.90;;;;;;2086039;28;20025;-80
2023/03/01 04:21:55;;;;;;;62.45;33.72;;;-4.00;99.90;;;;;;2078010;28;20025;-79
2023/03/01 04:23:10;;;;;;;64.20;33.70;;;-4.00;99.90;;;;;;2077760;28;20456;-77
2023/03/01 04:24:10;;;;;;;64.32;34.00;;;-4.00;99.90;;;;;;2078049;28;20542;-77
2023/03/01 04:25:13;;;;;;;61.72;33.03;;;-4.10;99.90;;;;;;2078092;28;20111;-78
2023/03/01 04:26:14;;;;;;;59.72;32.72;;;-4.10;99.90;;;;;;2078744;28;20033;-78
2023/03/01 04:27:14;;;;;;;62.65;33.85;;;-4.10;99.90;;;;;;2078948;28;20388;-79
2023/03/01 04:28:15;;;;;;;59.10;33.30;;;-4.10;99.90;;;;;;2079239;28;20033;-78
2023/03/01 04:29:16;;;;;;;60.78;33.50;;;-4.10;99.90;;;;;;2078951;28;20107;-79
2023/03/01 04:30:17;;;;;;;62.95;34.22;;;-4.10;99.90;;;;;;2079123;28;20444;-77
2023/03/01 04:31:20;;;;;;;64.78;34.63;;;-4.10;99.90;;;;;;2079251;28;20489;-78
2023/03/01 04:32:21;;;;;;;66.22;35.10;;;-4.10;99.90;;;;;;2078366;28;20042;-79
2023/03/01 04:33:23;;;;;;;63.50;34.38;;;-4.10;99.90;;;;;;2078711;28;20060;-79
2023/03/01 04:34:23;;;;;;;65.72;35.17;;;-4.10;99.90;;;;;;2079204;28;20029;-82
2023/03/01 04:35:24;;;;;;;66.07;34.63;;;-4.10;99.90;;;;;;2079558;28;20025;-78
2023/03/01 04:36:27;;;;;;;62.15;34.38;;;-4.10;99.90;;;;;;2088318;28;20249;-79
2023/03/01 04:37:29;;;;;;;62.97;34.47;;;-4.10;99.90;;;;;;2086846;28;20051;-79
2023/03/01 04:38:30;;;;;;;61.40;33.97;;;-4.10;99.90;;;;;;2078769;28;20120;-79
2023/03/01 04:39:30;;;;;;;64.43;34.88;;;-4.10;99.90;;;;;;2078885;28;20490;-78
2023/03/01 04:40:31;;;;;;;63.42;34.33;;;-4.10;99.90;;;;;;2086796;28;20399;-77
2023/03/01 04:41:32;;;;;;;63.45;34.15;;;-4.10;99.90;;;;;;2094871;28;20086;-79
2023/03/01 04:42:32;;;;;;;62.55;34.80;;;-4.10;99.90;;;;;;2078760;28;20508;-79
2023/03/01 04:43:34;;;;;;;65.53;34.35;;;-4.10;99.90;;;;;;2078988;28;20029;-78
2023/03/01 04:44:34;;;;;;;62.88;34.47;;;-4.20;99.90;;;;;;2094718;28;20062;-78
2023/03/01 04:45:35;;;;;;;66.40;34.83;;;-4.20;99.90;;;;;;2094718;28;20169;-78
2023/03/01 04:46:36;;;;;;;63.95;34.60;;;-4.20;99.90;;;;;;2077944;28;20041;-78
2023/03/01 04:47:38;;;;;;;64.72;34.47;;;-4.20;99.90;;;;;;2078761;28;20053;-80
2023/03/01 04:48:39;;;;;;;64.88;34.80;;;-4.20;99.90;;;;;;2079140;28;20467;-78
2023/03/01 04:49:40;;;;;;;62.03;34.10;;;-4.20;99.90;;;;;;2079261;28;20029;-79
2023/03/01 04:50:40;;;;;;;62.67;34.28;;;-4.20;99.90;;;;;;2079036;28;20068;-77
2023/03/01 04:51:41;;;;;;;67.22;35.10;;;-4.20;99.90;;;;;;2079425;28;20083;-79
2023/03/01 04:52:43;;;;;;;69.13;35.28;;;-4.20;99.90;;;;;;2094806;28;20099;-77
2023/03/01 04:53:43;;;;;;;63.60;33.67;;;-4.20;99.90;;;;;;2094299;28;20384;-78
2023/03/01 04:54:44;;;;;;;64.93;34.92;;;-4.20;99.90;;;;;;2078599;28;20049;-79
2023/03/01 04:55:45;;;;;;;66.93;35.72;;;-4.20;99.90;;;;;;2078330;28;20163;-79
2023/03/01 04:56:45;;;;;;;66.82;35.38;;;-4.20;99.90;;;;;;2081283;28;20395;-79
2023/03/01 04:57:46;;;;;;;64.47;34.38;;;-4.20;99.90;;;;;;2086286;28;20033;-79
2023/03/01 04:58:46;;;;;;;67.35;36.45;;;-4.20;99.90;;;;;;2070652;28;20135;-79
2023/03/01 04:59:47;;;;;;;62.40;34.80;;;-4.20;99.90;;;;;;2080353;28;20033;-80
2023/03/01 05:00:47;;;;;;;66.88;36.10;;;-4.20;99.90;;;;;;2086079;28;20033;-78
2023/03/01 05:01:55;;;;;;;67.45;34.90;;;-4.20;99.90;;;;;;2078671;28;20029;-78
2023/03/01 05:02:59;;;;;;;63.35;34.28;;;-4.20;99.90;;;;;;2078574;28;20073;-79
2023/03/01 05:04:02;;;;;;;65.78;35.72;;;-4.20;99.90;;;;;;2078551;28;20044;-80
2023/03/01 05:05:03;;;;;;;67.88;36.33;;;-4.20;99.90;;;;;;2078651;28;20073;-80
2023/03/01 05:06:04;;;;;;;62.10;34.00;;;-4.20;99.90;;;;;;2078610;28;20035;-78
2023/03/01 05:07:05;;;;;;;64.50;34.85;;;-4.30;99.90;;;;;;2078444;28;20717;-79
2023/03/01 05:08:07;;;;;;;66.13;36.08;;;-4.30;99.90;;;;;;2078696;28;20729;-80
2023/03/01 05:09:08;;;;;;;67.22;35.50;;;-4.30;99.90;;;;;;2070886;28;20037;-81
2023/03/01 05:10:09;;;;;;;71.28;37.15;;;-4.30;99.90;;;;;;2070499;28;20037;-79
2023/03/01 05:11:10;;;;;;;67.88;35.70;;;-4.30;99.90;;;;;;2086175;28;20044;-79
2023/03/01 05:12:12;;;;;;;65.82;35.80;;;-4.30;99.90;;;;;;2077520;28;20152;-78
2023/03/01 05:13:14;;;;;;;68.90;36.35;;;-4.30;99.90;;;;;;2069619;28;20034;-80
2023/03/01 05:14:15;;;;;;;66.55;35.70;;;-4.30;99.90;;;;;;2077342;28;20033;-79
2023/03/01 05:15:16;;;;;;;69.35;36.28;;;-4.30;99.90;;;;;;2085594;28;20032;-79
2023/03/01 05:16:16;;;;;;;67.32;36.05;;;-4.30;99.90;;;;;;2085702;28;20039;-79
2023/03/01 05:17:17;;;;;;;68.60;35.85;;;-4.30;99.90;;;;;;2070009;28;20037;-78
2023/03/01 05:18:17;;;;;;;69.35;36.30;;;-4.30;99.90;;;;;;2076767;28;20044;-78
2023/03/01 05:19:22;;;;;;;68.53;35.75;;;-4.30;99.90;;;;;;2078175;28;20033;-79